Impacts METAR Board
IDs:

KMSP - Minneapolis-St Paul, MN, US

Updated at: 0500 UTC 21 Apr 2018
Potential Impact None Slight Moderate High
Time 20/17Z 20/18Z 20/19Z 20/20Z 20/21Z 20/22Z 20/23Z 21/00Z 21/01Z 21/02Z 21/03Z 21/04Z 21/05Z
Temp48 48 49 50 51 52 50 50 48 48 46 44 43
Dewpt22 18 18 17 17 16 19 22 22 20 24 26 27
Altim30.50 30.49 30.47 30.46 30.44 30.42 30.42 30.43 30.43 30.44 30.44 30.45 30.44
VIS10 10 10 10 10 10 10 10 10 10 10 10 10
CIG250 250 -- -- 250 250 250 250 190 210 230 190 150
CoverBKNBKNSCTSCTBKNBKNBKNOVCOVCBKNBKNOVCOVC
FltCatVFRVFRVFRVFRVFRVFRVFRVFRVFRVFRVFRVFRVFR
WX--------------------------
WDir0190160013001601701902102200300
WSpd0 3 4 5 6 0 5 8 4 5 3 0 3
WGst-- -- -- -- -- -- -- -- -- -- -- -- --
Raw hourly METARs
KMSP 201653Z 00000KT 10SM BKN250 09/M06 A3050 RMK AO2 SLP334 T00891056
KMSP 201753Z 19003KT 10SM BKN250 09/M08 A3049 RMK AO2 SLP331 4/002 T00891078 10100 21022 58007
KMSP 201853Z 16004KT 10SM SCT250 09/M08 A3047 RMK AO2 SLP326 T00941078
KMSP 201953Z VRB05KT 10SM SCT250 10/M08 A3046 RMK AO2 SLP323 T01001083
KMSP 202053Z 13006KT 10SM BKN250 11/M08 A3044 RMK AO2 SLP315 T01061083 58016
KMSP 202153Z 00000KT 10SM BKN250 11/M09 A3042 RMK AO2 SLP308 T01111089
KMSP 202253Z 16005KT 10SM BKN250 10/M07 A3042 RMK AO2 SLP309 T01001072
KMSP 202353Z 17008KT 10SM SCT150 OVC250 10/M06 A3043 RMK AO2 SLP313 4/001 T01001056 10117 20089 55003
KMSP 210053Z 19004KT 10SM SCT150 OVC190 09/M06 A3043 RMK AO2 SLP312 T00891056
KMSP 210153Z 21005KT 10SM BKN210 09/M07 A3044 RMK AO2 SLP315 T00891067
KMSP 210253Z 22003KT 10SM BKN230 08/M04 A3044 RMK AO2 SLP315 T00781044 53003
KMSP 210353Z 00000KT 10SM OVC190 07/M03 A3045 RMK AO2 SLP316 T00671033
KMSP 210453Z 30003KT 10SM OVC150 06/M03 A3044 RMK AO2 SLP313 T00611028



Page loaded:  05:27 UTC  |   10:27 PM Pacific  |   11:27 PM Mountain  |   12:27 AM Central  |   01:27 AM Eastern

 

ADVISORIES

FORECASTS

FORECASTS

OBSERVATIONS

USER TOOLS

ABOUT US